Time;durP1;ratioP1;P1;durP2;ratioP2;P2;SDS_P1;SDS_P2;PMS_P1;PMS_P2;Temp;Humidity;BMP_temperature;BMP_pressure;BME280_temperature;BME280_humidity;BME280_pressure;Samples;Min_cycle;Max_cycle;Signal;HPM_P1;HPM_P2
2021/08/24 00:00:26;;;;;;;21.77;8.10;;;;;;;13.39;100.00;102570.56;5065291;28;20024;-65
2021/08/24 00:02:51;;;;;;;20.60;7.68;;;;;;;13.38;100.00;102573.19;5065665;28;20029;-65
2021/08/24 00:05:27;;;;;;;20.42;7.78;;;;;;;13.34;100.00;102579.25;5065702;28;20115;-65
2021/08/24 00:07:56;;;;;;;20.00;8.00;;;;;;;13.36;100.00;102574.94;5065592;28;20025;-65
2021/08/24 00:10:22;;;;;;;19.88;7.63;;;;;;;13.30;100.00;102577.44;5065697;28;20418;-67
2021/08/24 00:12:47;;;;;;;19.67;7.95;;;;;;;13.27;100.00;102578.25;5064933;28;20055;-67
2021/08/24 00:15:13;;;;;;;19.92;7.80;;;;;;;13.25;100.00;102578.22;5066460;28;20456;-67
2021/08/24 00:17:39;;;;;;;20.88;7.90;;;;;;;13.18;100.00;102581.63;5063915;28;20017;-67
2021/08/24 00:20:05;;;;;;;19.38;7.88;;;;;;;13.16;100.00;102578.00;5063300;28;20036;-67
2021/08/24 00:22:30;;;;;;;20.38;8.32;;;;;;;13.14;100.00;102571.78;5066214;28;20032;-67
2021/08/24 00:24:55;;;;;;;21.13;7.90;;;;;;;13.14;100.00;102576.22;5064625;28;20021;-67
2021/08/24 00:27:20;;;;;;;18.95;7.65;;;;;;;13.12;100.00;102576.19;5064926;28;20032;-67
2021/08/24 00:29:46;;;;;;;19.45;7.85;;;;;;;13.04;100.00;102581.31;5065633;28;20048;-67
2021/08/24 00:32:11;;;;;;;20.48;7.93;;;;;;;13.02;100.00;102582.16;5063578;28;20163;-67
2021/08/24 00:34:36;;;;;;;19.35;7.53;;;;;;;12.97;100.00;102578.50;5066552;28;20033;-67
2021/08/24 00:37:02;;;;;;;21.20;8.07;;;;;;;12.96;100.00;102585.56;5063237;28;20029;-66
2021/08/24 00:39:28;;;;;;;21.17;8.02;;;;;;;12.93;100.00;102587.25;5065993;28;20048;-67
2021/08/24 00:41:53;;;;;;;19.38;7.47;;;;;;;12.89;100.00;102579.22;5064523;28;20036;-67
2021/08/24 00:44:18;;;;;;;20.17;8.20;;;;;;;12.82;100.00;102585.25;5064427;28;20026;-67
2021/08/24 00:46:48;;;;;;;20.70;8.60;;;;;;;12.77;100.00;102588.66;5065679;28;20028;-67
2021/08/24 00:49:19;;;;;;;20.40;8.30;;;;;;;12.76;100.00;102578.94;5063361;28;20021;-67
2021/08/24 00:51:47;;;;;;;21.10;8.60;;;;;;;12.72;100.00;102583.25;5064941;28;20444;-67
2021/08/24 00:54:20;;;;;;;22.48;9.10;;;;;;;12.75;100.00;102587.75;5063437;28;20045;-67
2021/08/24 00:56:51;;;;;;;20.02;8.38;;;;;;;12.66;100.00;102580.47;5065133;28;20069;-67
2021/08/24 00:59:17;;;;;;;20.88;8.18;;;;;;;12.59;100.00;102581.19;5063630;28;20021;-67
2021/08/24 01:01:43;;;;;;;19.58;8.50;;;;;;;12.55;100.00;102583.75;5065828;28;20029;-67
2021/08/24 01:04:09;;;;;;;20.88;8.48;;;;;;;12.58;100.00;102582.03;5062713;28;20440;-67
2021/08/24 01:06:53;;;;;;;21.83;8.68;;;;;;;12.52;100.00;102582.78;5066242;28;20020;-67
2021/08/24 01:09:55;;;;;;;20.45;8.52;;;;;;;12.50;100.00;102584.50;5063737;28;20025;-67
2021/08/24 01:13:06;;;;;;;19.77;8.50;;;;;;;12.40;100.00;102575.41;5063735;28;20033;-67
2021/08/24 01:15:45;;;;;;;21.17;9.07;;;;;;;12.32;100.00;102577.91;5064964;28;20032;-65
2021/08/24 01:18:13;;;;;;;21.17;8.80;;;;;;;12.24;100.00;102581.22;5062710;28;20124;-66
2021/08/24 01:20:54;;;;;;;21.20;8.93;;;;;;;12.18;100.00;102574.88;5065700;28;20024;-65
2021/08/24 01:23:42;;;;;;;19.83;8.82;;;;;;;12.15;100.00;102579.22;5063503;28;20411;-64
2021/08/24 01:26:32;;;;;;;22.08;9.20;;;;;;;12.15;100.00;102580.13;5062356;28;20439;-65
2021/08/24 01:29:28;;;;;;;20.75;9.00;;;;;;;12.16;100.00;102587.22;5064698;28;20075;-65
2021/08/24 01:32:21;;;;;;;20.83;9.45;;;;;;;12.11;100.00;102587.97;5064004;28;20036;-65
2021/08/24 01:35:25;;;;;;;21.60;8.90;;;;;;;12.06;100.00;102590.50;5062879;28;20506;-65
2021/08/24 01:38:09;;;;;;;;;;;;;;;12.03;100.00;102590.41;5064026;28;20045;-65
2021/08/24 01:41:01;;;;;;;20.73;9.45;;;;;;;12.02;100.00;102593.91;5061916;28;19912;-64
2021/08/24 01:43:57;;;;;;;21.30;9.47;;;;;;;12.00;100.00;102585.94;5064186;28;20031;-65
2021/08/24 01:46:35;;;;;;;21.55;9.70;;;;;;;12.02;100.00;102578.91;5064027;28;20051;-65
2021/08/24 01:49:03;;;;;;;22.20;9.40;;;;;;;12.03;100.00;102587.78;5062312;28;20092;-65
2021/08/24 01:51:38;;;;;;;21.02;9.43;;;;;;;12.00;100.00;102582.38;5063986;28;20396;-65
2021/08/24 01:54:11;;;;;;;21.92;9.57;;;;;;;11.94;100.00;102592.81;5061800;28;20083;-65
2021/08/24 01:56:38;;;;;;;24.38;9.48;;;;;;;11.95;100.00;102581.34;5061476;28;20032;-65
2021/08/24 01:59:27;;;;;;;22.10;10.00;;;;;;;11.91;100.00;102592.69;5064722;28;20028;-65
2021/08/24 02:02:03;;;;;;;21.30;9.40;;;;;;;11.90;100.00;102593.53;5063219;28;20099;-65
2021/08/24 02:04:37;;;;;;;21.45;9.70;;;;;;;11.86;100.00;102593.47;5061536;28;20032;-65
2021/08/24 02:07:07;;;;;;;22.27;9.40;;;;;;;11.85;100.00;102590.78;5064442;28;20111;-64
2021/08/24 02:09:46;;;;;;;21.73;9.38;;;;;;;11.77;100.00;102598.53;5062127;28;20102;-65
2021/08/24 02:12:13;;;;;;;21.33;9.63;;;;;;;11.78;100.00;102589.72;5061655;28;20029;-67
2021/08/24 02:14:41;;;;;;;21.63;10.02;;;;;;;11.74;100.00;102593.16;5065006;28;20349;-67
2021/08/24 02:17:10;;;;;;;20.65;9.38;;;;;;;11.70;100.00;102604.50;5061274;28;20025;-67
2021/08/24 02:19:41;;;;;;;21.48;9.30;;;;;;;11.70;100.00;102601.84;5061366;28;20190;-67
2021/08/24 02:22:13;;;;;;;21.60;9.57;;;;;;;11.72;100.00;102593.94;5061317;28;20424;-67
2021/08/24 02:24:50;;;;;;;23.27;10.27;;;;;;;11.64;100.00;102601.69;5061124;28;20032;-67
2021/08/24 02:27:24;;;;;;;20.33;9.40;;;;;;;11.62;100.00;102609.59;5062031;28;20462;-66
2021/08/24 02:29:49;;;;;;;21.98;9.90;;;;;;;11.57;100.00;102610.31;5063147;28;20102;-66
2021/08/24 02:32:23;;;;;;;21.15;9.68;;;;;;;11.58;100.00;102612.13;5061592;28;20479;-67
2021/08/24 02:35:05;;;;;;;22.75;9.82;;;;;;;11.56;100.00;102606.75;5063251;28;20120;-67
2021/08/24 02:37:37;;;;;;;22.67;10.45;;;;;;;11.50;100.00;102618.09;5063771;28;20542;-67
2021/08/24 02:40:28;;;;;;;22.27;10.43;;;;;;;11.50;100.00;102618.09;5061270;28;20043;-67
2021/08/24 02:43:21;;;;;;;21.80;10.05;;;;;;;11.41;100.00;102623.13;5062539;28;20383;-66
2021/08/24 02:46:17;;;;;;;23.98;10.30;;;;;;;11.36;100.00;102613.25;5061700;28;20037;-67
2021/08/24 02:48:49;;;;;;;22.25;10.52;;;;;;;11.39;100.00;102621.28;5062347;28;20412;-67
2021/08/24 02:51:17;;;;;;;22.17;10.18;;;;;;;11.38;100.00;102619.50;5061186;28;20044;-66
2021/08/24 02:53:59;;;;;;;23.02;10.63;;;;;;;11.41;100.00;102624.88;5058833;28;20522;-66
2021/08/24 02:56:25;;;;;;;22.30;10.60;;;;;;;11.42;100.00;102622.28;5059982;28;20064;-67
2021/08/24 02:58:50;;;;;;;22.27;10.80;;;;;;;11.40;100.00;102618.69;5060092;28;20476;-66
2021/08/24 03:01:15;;;;;;;22.55;9.88;;;;;;;11.42;100.00;102632.88;5061375;28;20037;-66
2021/08/24 03:03:41;;;;;;;21.92;10.48;;;;;;;11.34;100.00;102626.44;5058427;28;20064;-65
2021/08/24 03:06:06;;;;;;;22.77;10.07;;;;;;;11.32;100.00;102625.50;5062172;28;20174;-65
2021/08/24 03:08:32;;;;;;;22.20;10.13;;;;;;;11.27;100.00;102628.03;5059114;28;20057;-65
2021/08/24 03:10:58;;;;;;;22.58;10.02;;;;;;;11.24;100.00;102624.38;5060997;28;20372;-66
2021/08/24 03:13:32;;;;;;;21.88;10.23;;;;;;;11.25;100.00;102626.16;5060016;28;20036;-66
2021/08/24 03:16:06;;;;;;;21.80;9.70;;;;;;;11.23;100.00;102627.88;5064392;28;20036;-66
2021/08/24 03:18:40;;;;;;;23.00;9.90;;;;;;;11.23;100.00;102625.25;5062802;28;20037;-66
2021/08/24 03:21:09;;;;;;;22.48;10.10;;;;;;;11.21;100.00;102625.16;5065854;28;20028;-65
2021/08/24 03:23:38;;;;;;;23.35;10.13;;;;;;;11.15;100.00;102632.94;5062673;28;20028;-66
2021/08/24 03:26:05;;;;;;;22.10;10.05;;;;;;;11.15;100.00;102625.91;5066976;28;20063;-66
2021/08/24 03:28:31;;;;;;;23.02;10.13;;;;;;;11.14;100.00;102626.75;5063927;28;20120;-66
2021/08/24 03:30:56;;;;;;;22.85;9.88;;;;;;;11.12;100.00;102628.44;5066604;28;20092;-66
2021/08/24 03:33:21;;;;;;;22.63;10.25;;;;;;;11.12;100.00;102631.09;5066120;28;20115;-66
2021/08/24 03:35:47;;;;;;;21.65;9.75;;;;;;;11.07;100.00;102630.06;5065061;28;20032;-66
2021/08/24 03:38:13;;;;;;;22.83;9.77;;;;;;;11.05;100.00;102631.75;5067555;28;20029;-66
2021/08/24 03:40:39;;;;;;;22.40;10.20;;;;;;;11.05;100.00;102630.84;5064389;28;20086;-66
2021/08/24 03:43:05;;;;;;;24.08;10.73;;;;;;;11.11;100.00;102633.69;5067594;28;20024;-66
2021/08/24 03:45:31;;;;;;;23.40;10.65;;;;;;;11.06;100.00;102630.00;5065002;28;20078;-65
2021/08/24 03:47:56;;;;;;;24.20;10.60;;;;;;;11.03;100.00;102633.47;5065965;28;20538;-65
2021/08/24 03:50:22;;;;;;;21.65;10.27;;;;;;;10.99;100.00;102632.47;5066093;28;20756;-64
2021/08/24 03:52:49;;;;;;;21.70;10.27;;;;;;;10.98;100.00;102635.06;5064779;28;20036;-65
2021/08/24 03:55:16;;;;;;;22.42;10.85;;;;;;;11.01;100.00;102632.53;5067182;28;20024;-64
2021/08/24 03:57:41;;;;;;;24.65;10.77;;;;;;;10.95;100.00;102643.81;5064259;28;20025;-65
2021/08/24 04:00:07;;;;;;;24.70;10.95;;;;;;;10.89;100.00;102640.97;5067250;28;20028;-64
2021/08/24 04:02:32;;;;;;;22.45;10.50;;;;;;;10.94;100.00;102649.06;5064390;28;20021;-65
2021/08/24 04:05:02;;;;;;;24.02;11.68;;;;;;;10.93;100.00;102641.97;5066448;28;20025;-65
2021/08/24 04:07:31;;;;;;;23.42;11.50;;;;;;;10.93;100.00;102641.97;5064843;28;20036;-65
2021/08/24 04:09:57;;;;;;;22.83;11.40;;;;;;;10.90;100.00;102647.16;5065747;28;20036;-65
2021/08/24 04:12:23;;;;;;;23.17;11.55;;;;;;;10.85;100.00;102649.66;5065546;28;20476;-65
2021/08/24 04:14:49;;;;;;;23.73;11.15;;;;;;;10.81;100.00;102642.47;5064452;28;20029;-65
2021/08/24 04:17:14;;;;;;;22.13;10.52;;;;;;;10.79;100.00;102649.44;5066255;28;20468;-65
2021/08/24 04:19:40;;;;;;;22.98;10.80;;;;;;;10.81;100.00;102647.75;5063948;28;20025;-65
2021/08/24 04:22:11;;;;;;;23.65;11.32;;;;;;;10.81;100.00;102656.59;5066886;28;20047;-65
2021/08/24 04:24:37;;;;;;;23.45;10.60;;;;;;;10.74;100.00;102656.34;5063702;28;20431;-65
2021/08/24 04:27:03;;;;;;;22.73;11.20;;;;;;;10.72;100.00;102664.25;5065948;28;20029;-65
2021/08/24 04:29:29;;;;;;;23.20;10.48;;;;;;;10.71;100.00;102653.59;5064282;28;20028;-65
2021/08/24 04:31:56;;;;;;;22.92;10.93;;;;;;;10.70;100.00;102660.63;5064837;28;20098;-65
2021/08/24 04:34:21;;;;;;;23.58;11.13;;;;;;;10.63;100.00;102654.25;5064433;28;20028;-65
2021/08/24 04:36:46;;;;;;;22.80;11.00;;;;;;;10.61;100.00;102655.03;5064068;28;20037;-65
2021/08/24 04:39:12;;;;;;;24.00;11.25;;;;;;;10.55;100.00;102671.59;5066505;28;20107;-65
2021/08/24 04:41:37;;;;;;;22.50;11.52;;;;;;;10.55;100.00;102670.72;5063184;28;20039;-65
2021/08/24 04:44:02;;;;;;;23.40;11.25;;;;;;;10.53;100.00;102668.03;5065929;28;20021;-67
2021/08/24 04:46:28;;;;;;;24.67;11.63;;;;;;;10.50;100.00;102667.94;5064147;28;20033;-67
2021/08/24 04:48:53;;;;;;;22.92;11.48;;;;;;;10.57;100.00;102666.38;5064828;28;20067;-67
2021/08/24 04:51:19;;;;;;;24.17;11.77;;;;;;;10.56;100.00;102664.59;5065091;28;20051;-67
2021/08/24 04:53:44;;;;;;;24.23;12.15;;;;;;;10.57;100.00;102666.38;5063358;28;20037;-67
2021/08/24 04:56:09;;;;;;;24.33;11.75;;;;;;;10.53;100.00;102672.38;5066373;28;20475;-67
2021/08/24 04:58:35;;;;;;;23.45;12.20;;;;;;;10.53;100.00;102667.09;5063266;28;20025;-67
2021/08/24 05:01:00;;;;;;;24.10;12.10;;;;;;;10.56;100.00;102669.88;5065437;28;20017;-66
2021/08/24 05:03:25;;;;;;;24.58;12.70;;;;;;;10.58;100.00;102668.16;5064384;28;20063;-67
2021/08/24 05:05:51;;;;;;;25.08;12.43;;;;;;;10.59;100.00;102675.25;5063700;28;20377;-67
2021/08/24 05:08:16;;;;;;;24.77;13.57;;;;;;;10.63;100.00;102666.59;5065795;28;20020;-67
2021/08/24 05:10:41;;;;;;;27.25;13.20;;;;;;;10.63;100.00;102664.84;5062480;28;20025;-67
2021/08/24 05:13:07;;;;;;;26.45;13.90;;;;;;;10.71;100.00;102673.00;5065773;28;20032;-66
2021/08/24 05:15:32;;;;;;;25.70;13.93;;;;;;;10.75;100.00;102674.03;5063257;28;20025;-67
2021/08/24 05:17:58;;;;;;;25.23;14.60;;;;;;;10.82;100.00;102679.56;5064553;28;20423;-67
2021/08/24 05:20:24;;;;;;;26.55;14.70;;;;;;;10.88;100.00;102681.50;5063977;28;20024;-66
2021/08/24 05:22:50;;;;;;;27.50;14.27;;;;;;;10.94;100.00;102691.41;5063330;28;20021;-67
2021/08/24 05:25:22;;;;;;;29.25;14.55;;;;;;;10.98;100.00;102691.53;5065198;28;20387;-67
2021/08/24 05:27:48;;;;;;;26.10;14.20;;;;;;;11.03;100.00;102690.78;5063111;28;20017;-67
2021/08/24 05:30:20;;;;;;;26.83;14.05;;;;;;;11.09;100.00;102696.28;5065646;28;20020;-67
2021/08/24 05:32:45;;;;;;;26.23;14.40;;;;;;;11.16;100.00;102698.25;5062525;28;20379;-67
2021/08/24 05:35:12;;;;;;;27.63;14.82;;;;;;;11.19;100.00;102697.47;5065470;28;20032;-67
2021/08/24 05:37:38;;;;;;;28.08;14.68;;;;;;;11.26;100.00;102694.16;5061321;28;20029;-68
2021/08/24 05:40:04;;;;;;;26.77;14.70;;;;;;;11.29;100.00;102703.09;5068694;28;20077;-66
2021/08/24 05:42:30;;;;;;;28.55;14.75;;;;;;;11.35;100.00;102705.03;5071872;28;20031;-68
2021/08/24 05:44:57;;;;;;;27.00;15.18;;;;;;;11.40;100.00;102698.13;5072254;28;20029;-67
2021/08/24 05:47:22;;;;;;;26.35;15.27;;;;;;;11.47;100.00;102701.84;5071570;28;20106;-66
2021/08/24 05:49:47;;;;;;;27.63;15.65;;;;;;;11.51;100.00;102707.28;5071790;28;20503;-68
2021/08/24 05:52:13;;;;;;;27.00;15.82;;;;;;;11.56;100.00;102706.53;5071635;28;20071;-67
2021/08/24 05:54:38;;;;;;;27.80;15.73;;;;;;;11.62;100.00;102706.69;5070340;28;20428;-67
2021/08/24 05:57:05;;;;;;;28.02;15.95;;;;;;;11.67;100.00;102707.75;5071486;28;20039;-66
2021/08/24 05:59:32;;;;;;;27.50;16.58;;;;;;;11.72;100.00;102713.16;5071697;28;20115;-67
2021/08/24 06:01:57;;;;;;;26.05;15.35;;;;;;;11.80;100.00;102715.19;5071554;28;20115;-68
2021/08/24 06:04:23;;;;;;;27.55;16.58;;;;;;;11.82;100.00;102713.50;5071912;28;20523;-67
2021/08/24 06:06:49;;;;;;;27.55;16.17;;;;;;;11.89;100.00;102706.59;5071651;28;20035;-68
2021/08/24 06:09:14;;;;;;;29.77;17.67;;;;;;;11.95;100.00;102708.56;5071933;28;20033;-66
2021/08/24 06:11:44;;;;;;;30.73;17.52;;;;;;;11.98;100.00;102703.34;5071308;28;20502;-68
2021/08/24 06:14:10;;;;;;;29.10;16.85;;;;;;;12.06;100.00;102701.81;5071166;28;20024;-67
2021/08/24 06:16:37;;;;;;;28.63;17.38;;;;;;;12.11;100.00;102697.53;5071117;28;20420;-69
2021/08/24 06:19:02;;;;;;;29.50;17.60;;;;;;;12.19;100.00;102701.28;5071759;28;20027;-67
2021/08/24 06:21:28;;;;;;;29.00;17.80;;;;;;;12.25;100.00;102702.34;5071703;28;20386;-68
2021/08/24 06:23:54;;;;;;;29.88;17.55;;;;;;;12.31;100.00;102698.06;5069844;28;20371;-68
2021/08/24 06:26:20;;;;;;;27.23;16.98;;;;;;;12.38;100.00;102701.81;5069391;28;20028;-66
2021/08/24 06:28:45;;;;;;;31.70;17.42;;;;;;;12.43;100.00;102700.16;5070865;28;20056;-68
2021/08/24 06:31:19;;;;;;;31.77;18.35;;;;;;;12.51;100.00;102705.69;5071661;28;20459;-67
2021/08/24 06:33:45;;;;;;;30.23;17.55;;;;;;;12.60;100.00;102705.00;5070598;28;20522;-67
2021/08/24 06:36:11;;;;;;;30.00;17.63;;;;;;;12.64;100.00;102706.84;5070939;28;20033;-68
2021/08/24 06:38:36;;;;;;;29.20;17.63;;;;;;;12.69;100.00;102710.53;5071411;28;20039;-67
2021/08/24 06:41:03;;;;;;;32.47;18.50;;;;;;;12.81;100.00;102708.19;5070430;28;20032;-68
2021/08/24 06:43:29;;;;;;;29.77;18.67;;;;;;;12.87;100.00;102718.97;5070998;28;20048;-67
2021/08/24 06:45:55;;;;;;;29.45;18.05;;;;;;;12.93;100.00;102719.97;5070759;28;20012;-67
2021/08/24 06:48:20;;;;;;;32.33;18.58;;;;;;;12.99;100.00;102712.13;5069860;28;20641;-68
2021/08/24 06:50:46;;;;;;;29.60;18.83;;;;;;;13.06;100.00;102711.44;5070808;28;20040;-67
2021/08/24 06:53:11;;;;;;;34.20;18.67;;;;;;;13.17;100.00;102711.69;5070716;28;20548;-68
2021/08/24 06:55:38;;;;;;;30.40;19.15;;;;;;;13.20;100.00;102720.63;5069644;28;20060;-67
2021/08/24 06:58:05;;;;;;;30.88;18.45;;;;;;;13.28;100.00;102710.19;5071049;28;20364;-68
2021/08/24 07:00:30;;;;;;;30.15;18.38;;;;;;;13.35;100.00;102713.91;5071313;28;20036;-68
2021/08/24 07:02:56;;;;;;;29.38;18.45;;;;;;;13.40;100.00;102713.13;5071030;28;20029;-67
2021/08/24 07:05:25;;;;;;;30.00;18.45;;;;;;;13.50;100.00;102716.00;5071589;28;20099;-67
2021/08/24 07:07:51;;;;;;;31.48;17.83;;;;;;;13.55;100.00;102717.00;5062747;28;20025;-67
2021/08/24 07:10:19;;;;;;;31.48;19.08;;;;;;;13.64;100.00;102726.94;5060835;28;20040;-67
2021/08/24 07:12:45;;;;;;;30.23;18.80;;;;;;;13.70;100.00;102729.72;5063781;28;20123;-68
2021/08/24 07:15:13;;;;;;;29.95;18.33;;;;;;;13.76;100.00;102728.09;5060218;28;20116;-68
2021/08/24 07:17:39;;;;;;;31.42;20.02;;;;;;;13.88;100.00;102727.44;5060770;28;20138;-68
2021/08/24 07:20:07;;;;;;;30.45;19.80;;;;;;;13.94;100.00;102722.25;5063304;28;20390;-66
2021/08/24 07:22:33;;;;;;;30.92;18.92;;;;;;;13.98;100.00;102730.28;5065326;28;20364;-65
2021/08/24 07:25:01;;;;;;;31.63;18.60;;;;;;;14.07;100.00;102727.81;5070750;28;20051;-65
2021/08/24 07:27:26;;;;;;;32.20;18.15;;;;;;;14.10;100.00;102726.09;5067758;28;20467;-65
2021/08/24 07:29:52;;;;;;;30.63;18.45;;;;;;;14.17;100.00;102735.13;5070761;28;20082;-68
2021/08/24 07:32:17;;;;;;;29.02;17.00;;;;;;;14.22;100.00;102724.56;5070005;28;20039;-68
2021/08/24 07:34:42;;;;;;;29.38;17.30;;;;;;;14.26;100.00;102726.41;5070520;28;20112;-68
2021/08/24 07:37:07;;;;;;;29.75;17.63;;;;;;;14.33;100.00;102731.00;5070379;28;20060;-66
2021/08/24 07:39:33;;;;;;;31.27;17.63;;;;;;;14.42;100.00;102727.59;5070855;28;20107;-68
2021/08/24 07:41:58;;;;;;;30.45;17.70;;;;;;;14.51;100.00;102727.75;5066635;28;20037;-68
2021/08/24 07:44:25;;;;;;;30.30;17.52;;;;;;;14.60;100.00;102729.69;5069771;28;20626;-69
2021/08/24 07:46:51;;;;;;;28.50;16.70;;;;;;;14.64;100.00;102729.78;5070210;28;20039;-68
2021/08/24 07:49:17;;;;;;;28.15;16.60;;;;;;;14.70;100.00;102726.34;5070459;28;20391;-68
2021/08/24 07:51:43;;;;;;;28.65;17.15;;;;;;;14.79;100.00;102734.50;5068558;28;20052;-68
2021/08/24 07:54:08;;;;;;;29.92;18.15;;;;;;;14.91;100.00;102731.13;5070735;28;20495;-68
2021/08/24 07:56:33;;;;;;;27.98;15.90;;;;;;;14.97;100.00;102731.22;5070578;28;20058;-68
2021/08/24 07:59:00;;;;;;;30.27;16.88;;;;;;;15.10;100.00;102734.06;5069929;28;20109;-68
2021/08/24 08:01:25;;;;;;;28.25;16.60;;;;;;;15.16;100.00;102735.06;5069215;28;20028;-68
2021/08/24 08:03:51;;;;;;;28.67;15.95;;;;;;;15.22;100.00;102739.59;5074093;28;20024;-68
2021/08/24 08:06:16;;;;;;;27.48;15.68;;;;;;;15.37;100.00;102740.72;5073937;28;20032;-68
2021/08/24 08:08:41;;;;;;;27.98;16.73;;;;;;;15.54;100.00;102739.19;5074117;28;20027;-68
2021/08/24 08:11:07;;;;;;;28.73;15.52;;;;;;;15.67;100.00;102741.13;5073570;28;20020;-69
2021/08/24 08:13:32;;;;;;;28.20;15.38;;;;;;;15.93;100.00;102740.59;5073061;28;20036;-67
2021/08/24 08:15:58;;;;;;;27.38;14.13;;;;;;;16.13;100.00;102745.25;5072931;28;20032;-69
2021/08/24 08:18:23;;;;;;;26.92;13.82;;;;;;;16.42;100.00;102736.69;5064185;28;20021;-68
2021/08/24 08:20:49;;;;;;;28.38;13.57;;;;;;;16.95;96.32;102738.97;5064828;28;20021;-69
2021/08/24 08:23:16;;;;;;;24.85;12.90;;;;;;;17.38;91.86;102730.34;5065335;28;20028;-69
2021/08/24 08:25:41;;;;;;;25.30;13.63;;;;;;;17.84;90.15;102743.94;5063260;28;20025;-69
2021/08/24 08:28:08;;;;;;;24.08;12.60;;;;;;;17.95;86.70;102741.31;5066161;28;20047;-68
2021/08/24 08:30:34;;;;;;;23.95;12.48;;;;;;;17.81;87.97;102738.59;5062686;28;20039;-69
2021/08/24 08:33:01;;;;;;;27.48;13.73;;;;;;;17.86;87.95;102733.25;5065905;28;20046;-68
2021/08/24 08:35:27;;;;;;;25.17;12.90;;;;;;;17.91;86.03;102734.19;5063575;28;20037;-68
2021/08/24 08:37:53;;;;;;;23.77;12.25;;;;;;;17.97;86.24;102734.22;5065154;28;20033;-69
2021/08/24 08:40:28;;;;;;;23.10;11.65;;;;;;;18.32;85.92;102733.41;5064590;28;20074;-68
2021/08/24 08:43:15;;;;;;;23.90;11.50;;;;;;;19.17;81.80;102728.97;5065265;28;20100;-67
2021/08/24 08:45:46;;;;;;;26.30;11.00;;;;;;;19.81;75.47;102727.00;5063280;28;20146;-68
2021/08/24 08:48:44;;;;;;;24.75;10.77;;;;;;;20.55;74.48;102725.69;5065539;28;20093;-68
2021/08/24 08:51:31;;;;;;;23.45;10.02;;;;;;;21.39;66.60;102720.41;5062981;28;20551;-68
2021/08/24 08:54:10;;;;;;;22.02;9.00;;;;;;;21.72;68.25;102724.53;5063593;28;20040;-69
2021/08/24 08:57:13;;;;;;;22.33;8.77;;;;;;;22.35;69.57;102725.47;5062584;28;20021;-68
2021/08/24 08:59:47;;;;;;;22.55;8.43;;;;;;;22.83;61.48;102724.69;5056516;28;20056;-67
2021/08/24 09:02:25;;;;;;;22.88;8.52;;;;;;;23.06;61.15;102720.72;5062972;28;20428;-66
2021/08/24 09:04:51;;;;;;;22.08;8.10;;;;;;;23.26;58.67;102723.94;5062039;28;20063;-66
2021/08/24 09:07:25;;;;;;;21.40;8.15;;;;;;;23.44;57.82;102729.91;5062317;28;20131;-67
2021/08/24 09:09:51;;;;;;;21.23;7.47;;;;;;;23.94;55.96;102725.28;5061808;28;20033;-67
2021/08/24 09:12:18;;;;;;;20.33;8.10;;;;;;;24.14;55.01;102727.50;5061738;28;20036;-67
2021/08/24 09:14:49;;;;;;;21.45;8.05;;;;;;;24.47;55.32;102724.94;5061208;28;20064;-67
2021/08/24 09:17:24;;;;;;;21.90;7.22;;;;;;;24.99;55.28;102722.75;5062264;28;20446;-68
2021/08/24 09:19:55;;;;;;;18.52;6.82;;;;;;;25.10;50.93;102719.72;5061695;28;20029;-67
2021/08/24 09:22:20;;;;;;;20.92;7.20;;;;;;;24.75;51.05;102721.56;5061383;28;20056;-67
2021/08/24 09:24:47;;;;;;;20.35;6.93;;;;;;;24.02;55.02;102723.28;5061407;28;20071;-68
2021/08/24 09:27:21;;;;;;;21.02;6.95;;;;;;;23.45;54.92;102720.91;5062534;28;20089;-68
2021/08/24 09:29:49;;;;;;;21.23;6.80;;;;;;;23.47;55.11;102722.66;5061149;28;20037;-67
2021/08/24 09:32:21;;;;;;;19.60;6.30;;;;;;;24.20;53.88;102715.66;5062041;28;20172;-68
2021/08/24 09:34:48;;;;;;;19.77;6.88;;;;;;;24.79;50.12;102711.56;5061171;28;20029;-68
2021/08/24 09:37:20;;;;;;;19.73;6.40;;;;;;;25.10;50.28;102714.31;5063719;28;20075;-68
2021/08/24 09:39:52;;;;;;;18.73;5.65;;;;;;;25.51;48.33;102715.03;5062850;28;20066;-67
2021/08/24 09:42:37;;;;;;;;;;;;;;;25.85;50.11;102715.84;5064232;28;20501;-67
2021/08/24 09:45:25;;;;;;;19.63;5.68;;;;;;;26.11;46.52;102720.47;5063502;28;19924;-67
2021/08/24 09:48:06;;;;;;;18.17;5.50;;;;;;;26.14;46.42;102716.75;5064542;28;20064;-67
2021/08/24 09:50:37;;;;;;;18.08;5.55;;;;;;;26.45;45.09;102720.22;5063257;28;20102;-67
2021/08/24 09:53:04;;;;;;;18.05;5.60;;;;;;;26.55;43.31;102714.53;5062903;28;20136;-67
2021/08/24 09:55:35;;;;;;;17.60;5.20;;;;;;;27.26;42.60;102714.75;5062638;28;20131;-67
2021/08/24 09:58:06;;;;;;;17.55;5.18;;;;;;;27.90;40.47;102711.47;5062029;28;20074;-66
2021/08/24 10:00:39;;;;;;;17.77;5.30;;;;;;;28.08;40.68;102711.69;5059215;28;20434;-67
2021/08/24 10:03:21;;;;;;;17.27;4.80;;;;;;;28.51;41.14;102716.25;5062847;28;20127;-67
2021/08/24 10:05:46;;;;;;;16.85;4.47;;;;;;;28.96;37.42;102711.59;5062463;28;20052;-67
2021/08/24 10:08:33;;;;;;;18.55;5.10;;;;;;;29.14;39.37;102711.72;5061681;28;20032;-67
2021/08/24 10:11:04;;;;;;;17.17;4.88;;;;;;;29.46;38.27;102706.69;5062044;28;20098;-67
2021/08/24 10:13:35;;;;;;;17.00;5.18;;;;;;;30.10;37.25;102708.22;5059545;28;20533;-67
2021/08/24 10:16:09;;;;;;;;;;;;;;;30.57;37.28;102699.47;5063635;28;20033;-67
2021/08/24 10:18:36;;;;;;;18.05;5.35;;;;;;;30.46;34.92;102701.88;5062158;28;19923;-67
2021/08/24 10:21:05;;;;;;;18.52;5.35;;;;;;;30.37;36.43;102696.88;5057353;28;20071;-68
2021/08/24 10:23:37;;;;;;;16.48;5.05;;;;;;;30.49;36.84;102701.72;5025425;28;20105;-68
2021/08/24 10:26:06;;;;;;;15.75;4.68;;;;;;;30.83;33.61;102694.53;5024564;28;20117;-68
2021/08/24 10:28:53;;;;;;;16.20;4.50;;;;;;;30.93;35.36;102703.97;5021194;28;20366;-68
2021/08/24 10:31:33;;;;;;;16.13;4.85;;;;;;;30.42;35.09;102695.72;5025329;28;20029;-68
2021/08/24 10:34:12;;;;;;;17.13;5.53;;;;;;;28.96;38.14;102694.41;5023907;28;20031;-68
2021/08/24 10:36:46;;;;;;;18.05;5.40;;;;;;;28.19;38.73;102698.53;5025116;28;20022;-67
2021/08/24 10:39:27;;;;;;;19.58;5.40;;;;;;;27.20;41.07;102696.00;5021830;28;20116;-68
2021/08/24 10:42:05;;;;;;;17.55;6.25;;;;;;;26.04;44.24;102689.97;5023228;28;20452;-67
2021/08/24 10:44:42;;;;;;;18.50;6.22;;;;;;;27.93;42.45;102688.69;5024809;28;20479;-67
2021/08/24 10:47:28;;;;;;;18.60;5.80;;;;;;;29.40;39.39;102683.34;5025186;28;20112;-67
2021/08/24 10:49:59;;;;;;;17.52;5.00;;;;;;;28.71;38.08;102687.31;5022791;28;20049;-67
2021/08/24 10:52:43;;;;;;;16.42;4.68;;;;;;;29.32;37.96;102685.56;5060601;28;20562;-67
2021/08/24 10:55:28;;;;;;;18.25;5.20;;;;;;;29.00;38.57;102686.03;5060706;28;20032;-67
2021/08/24 10:58:12;;;;;;;16.85;4.93;;;;;;;29.51;36.78;102678.28;5061970;28;20074;-67
2021/08/24 11:01:00;;;;;;;17.65;5.07;;;;;;;30.79;35.98;102689.31;5060458;28;20522;-67
2021/08/24 11:03:44;;;;;;;16.40;5.00;;;;;;;31.79;32.96;102694.78;5061533;28;20407;-67
2021/08/24 11:06:28;;;;;;;16.55;5.25;;;;;;;30.53;34.15;102686.97;5060969;28;21007;-67
2021/08/24 11:09:09;;;;;;;17.02;5.38;;;;;;;29.16;37.17;102675.31;5062118;28;20035;-67
2021/08/24 11:11:52;;;;;;;18.75;5.30;;;;;;;27.70;39.56;102686.88;5060418;28;20419;-67
2021/08/24 11:14:26;;;;;;;19.08;6.38;;;;;;;27.06;40.82;102685.66;5061700;28;20479;-66
2021/08/24 11:16:54;;;;;;;17.65;4.93;;;;;;;28.35;38.36;102674.31;5061893;28;20414;-67
2021/08/24 11:19:45;;;;;;;16.60;4.75;;;;;;;30.68;35.70;102668.91;5062023;28;20426;-66
2021/08/24 11:22:31;;;;;;;14.65;4.53;;;;;;;32.58;32.98;102682.91;5061059;28;20032;-67